Time;durP1;ratioP1;P1;durP2;ratioP2;P2;SDS_P1;SDS_P2;PMS_P1;PMS_P2;Temp;Humidity;BMP_temperature;BMP_pressure;BME280_temperature;BME280_humidity;BME280_pressure;Samples;Min_cycle;Max_cycle;Signal;HPM_P1;HPM_P2
2023/06/06 00:02:19;;;;;;;6.90;3.50;;;;;;;19.82;83.73;100474.41;89877;1263;1058094;-58
2023/06/06 00:06:27;;;;;;;12.60;4.70;;;;;;;19.76;84.17;100475.61;89865;1263;1056969;-57
2023/06/06 00:10:31;;;;;;;5.80;4.30;;;;;;;19.84;85.15;100472.85;70974;1261;2018315;-57
2023/06/06 00:14:48;;;;;;;7.80;5.10;;;;;;;19.98;84.62;100471.72;65706;1262;2039608;-57
2023/06/06 00:18:52;;;;;;;9.30;5.00;;;;;;;20.03;83.91;100470.02;65733;1262;2056923;-57
2023/06/06 00:22:56;;;;;;;;;;;;;;;19.98;83.65;100470.53;67182;1262;2015858;-57
2023/06/06 00:26:59;;;;;;;6.40;5.10;;;;;;;19.90;84.27;100469.91;67235;1262;2015954;-57
2023/06/06 00:31:02;;;;;;;6.40;5.00;;;;;;;19.85;85.38;100477.80;68704;1261;2015201;-57
2023/06/06 00:35:34;;;;;;;6.00;3.90;;;;;;;19.87;85.08;100477.09;64177;1261;2037780;-57
2023/06/06 00:39:37;;;;;;;8.00;5.00;;;;;;;19.92;87.13;100479.41;67101;1261;2056921;-57
2023/06/06 00:43:40;;;;;;;7.00;5.40;;;;;;;20.06;86.23;100480.27;66393;1263;2015996;-58
2023/06/06 00:48:08;;;;;;;7.00;4.90;;;;;;;20.05;84.58;100476.44;66290;1261;2057599;-57
2023/06/06 00:52:16;;;;;;;6.40;4.80;;;;;;;19.93;84.64;100475.30;66305;1262;2036871;-57
2023/06/06 00:56:19;;;;;;;10.00;6.70;;;;;;;19.81;85.47;100476.08;63532;1261;2041816;-57
2023/06/06 01:00:23;;;;;;;9.20;5.30;;;;;;;19.75;86.55;100479.20;64876;1265;2015752;-57
2023/06/06 01:04:28;;;;;;;7.70;6.10;;;;;;;19.75;86.03;100481.58;65569;1261;2015700;-58
2023/06/06 01:08:32;;;;;;;5.30;4.80;;;;;;;19.73;85.91;100483.57;65021;1262;2036782;-57
2023/06/06 01:13:20;;;;;;;7.00;5.30;;;;;;;19.74;85.31;100487.91;65672;1261;2041755;-57
2023/06/06 01:17:27;;;;;;;12.90;5.60;;;;;;;19.69;85.95;100486.52;65690;1262;2057882;-58
2023/06/06 01:21:42;;;;;;;7.60;5.40;;;;;;;19.66;86.21;100487.38;83771;1262;2038635;-57
2023/06/06 01:25:48;;;;;;;10.00;5.50;;;;;;;19.64;86.22;100487.14;89816;1263;1036225;-57
2023/06/06 01:29:52;;;;;;;10.30;7.40;;;;;;;19.64;86.28;100488.44;89871;1263;1036195;-57
2023/06/06 01:34:07;;;;;;;7.30;6.00;;;;;;;19.58;88.04;100494.86;89918;1262;1036071;-58
2023/06/06 01:38:28;;;;;;;11.40;6.10;;;;;;;19.30;91.35;100494.04;89905;1262;1035997;-57
2023/06/06 01:42:35;;;;;;;10.70;6.20;;;;;;;19.10;93.57;100502.00;89782;1262;1036451;-57
2023/06/06 01:46:41;;;;;;;7.80;5.50;;;;;;;19.04;94.08;100503.68;89848;1263;1035320;-57
2023/06/06 01:50:46;;;;;;;8.50;6.10;;;;;;;19.07;95.14;100506.73;89881;1262;1036803;-58
2023/06/06 01:54:49;;;;;;;8.80;6.00;;;;;;;19.07;95.22;100501.79;89878;1263;1036430;-58
2023/06/06 01:58:54;;;;;;;10.30;6.40;;;;;;;18.99;95.15;100504.10;89913;1261;1036312;-57
2023/06/06 02:02:57;;;;;;;7.20;5.30;;;;;;;18.98;95.15;100504.37;89889;1261;1036301;-58
2023/06/06 02:07:03;;;;;;;7.80;5.30;;;;;;;19.02;94.13;100505.74;89923;1261;1036493;-57
2023/06/06 02:11:32;;;;;;;9.20;5.80;;;;;;;19.00;93.57;100505.29;89905;1262;1036836;-58
2023/06/06 02:15:35;;;;;;;9.20;7.00;;;;;;;18.92;94.08;100501.66;89889;1263;1036360;-58
2023/06/06 02:19:40;;;;;;;9.00;5.50;;;;;;;18.85;94.68;100504.58;89997;1262;1036079;-57
2023/06/06 02:23:43;;;;;;;14.50;7.40;;;;;;;18.83;94.58;100501.89;89885;1262;1036192;-57
2023/06/06 02:28:14;;;;;;;7.60;5.40;;;;;;;18.90;94.35;100499.34;89839;1263;1036456;-57
2023/06/06 02:32:18;;;;;;;11.90;6.00;;;;;;;18.88;94.33;100497.98;89722;1261;1035822;-57
2023/06/06 02:36:25;;;;;;;11.60;6.40;;;;;;;18.86;94.93;100497.84;89727;1262;1036731;-58
2023/06/06 02:40:28;;;;;;;11.00;6.50;;;;;;;18.89;95.65;100498.94;89804;1262;1036040;-57
2023/06/06 02:44:32;;;;;;;9.20;7.20;;;;;;;18.86;96.25;100497.05;89829;1262;1035881;-57
2023/06/06 02:48:37;;;;;;;11.00;7.50;;;;;;;18.84;96.37;100496.05;89876;1263;1036732;-58
2023/06/06 02:52:40;;;;;;;12.80;7.60;;;;;;;18.83;96.53;100495.83;89834;1261;1036378;-57
2023/06/06 02:56:44;;;;;;;10.60;6.30;;;;;;;18.81;96.11;100492.60;89910;1261;1036284;-57
2023/06/06 03:00:47;;;;;;;14.20;6.90;;;;;;;18.80;96.13;100494.20;89848;1262;1036342;-58
2023/06/06 03:04:52;;;;;;;9.70;6.80;;;;;;;18.81;96.05;100495.44;89829;1262;1036620;-58
2023/06/06 03:08:58;;;;;;;9.50;7.20;;;;;;;18.85;96.09;100496.73;89794;1263;1035978;-57
2023/06/06 03:13:00;;;;;;;17.50;8.30;;;;;;;18.95;96.12;100496.83;89896;1262;1036548;-58
2023/06/06 03:17:07;;;;;;;12.70;7.20;;;;;;;18.92;95.67;100494.20;89959;1262;1036629;-58
2023/06/06 03:21:14;;;;;;;7.70;5.50;;;;;;;18.78;97.50;100488.64;89892;1263;1035851;-58
2023/06/06 03:25:51;;;;;;;8.70;5.50;;;;;;;18.60;98.25;100489.21;89866;1263;1036682;-57
2023/06/06 03:29:55;;;;;;;10.50;6.50;;;;;;;18.46;100.00;100489.56;89754;1262;1036645;-57
2023/06/06 03:34:01;;;;;;;9.70;6.50;;;;;;;18.35;100.00;100488.95;89721;1263;1036134;-58
2023/06/06 03:38:04;;;;;;;9.20;6.70;;;;;;;18.31;100.00;100489.48;89756;1263;1035138;-59
2023/06/06 03:42:07;;;;;;;10.30;5.50;;;;;;;18.39;100.00;100494.77;89867;1262;1036829;-58
2023/06/06 03:46:10;;;;;;;6.70;4.70;;;;;;;18.57;99.97;100495.13;89890;1263;1036401;-58
2023/06/06 03:50:15;;;;;;;8.50;6.20;;;;;;;18.76;99.26;100497.81;89942;1261;1036552;-57
2023/06/06 03:54:29;;;;;;;9.40;5.90;;;;;;;18.91;98.87;100500.25;89929;1262;1036046;-57
2023/06/06 03:58:32;;;;;;;8.00;5.10;;;;;;;19.08;98.40;100498.42;89874;1263;1036751;-57
2023/06/06 04:02:38;;;;;;;9.40;7.00;;;;;;;19.07;98.32;100494.61;89932;1262;1037009;-58
2023/06/06 04:06:41;;;;;;;9.40;6.20;;;;;;;19.07;98.51;100495.11;89845;1263;1036574;-58
2023/06/06 04:10:44;;;;;;;8.60;5.40;;;;;;;19.02;99.28;100489.02;89829;1263;1036711;-58
2023/06/06 04:14:48;;;;;;;6.30;5.40;;;;;;;18.94;99.30;100487.36;89898;1262;1036310;-58
2023/06/06 04:18:52;;;;;;;8.00;6.70;;;;;;;18.95;99.08;100490.30;89830;1262;1036273;-58
2023/06/06 04:22:55;;;;;;;8.20;6.00;;;;;;;18.86;99.90;100490.23;89728;1262;1036009;-58
2023/06/06 04:27:03;;;;;;;6.90;5.70;;;;;;;18.81;100.00;100489.91;89883;1263;1036868;-58
2023/06/06 04:31:07;;;;;;;7.50;5.60;;;;;;;18.94;100.00;100493.13;90022;1265;1036310;-58
2023/06/06 04:35:11;;;;;;;7.50;5.80;;;;;;;19.13;100.00;100495.35;89886;1263;1036917;-58
2023/06/06 04:39:16;;;;;;;10.00;5.70;;;;;;;19.13;100.00;100496.56;89928;1262;1036734;-58
2023/06/06 04:43:23;;;;;;;14.50;6.60;;;;;;;19.12;100.00;100489.15;89830;1265;1035915;-58
2023/06/06 04:47:28;;;;;;;8.30;6.40;;;;;;;19.29;100.00;100485.27;89832;1262;1036071;-58
2023/06/06 04:51:37;;;;;;;8.10;6.40;;;;;;;19.37;100.00;100480.70;89822;1263;1036273;-58
2023/06/06 04:55:43;;;;;;;11.60;7.40;;;;;;;19.31;100.00;100480.92;89833;1262;1035996;-59
2023/06/06 05:34:03;;;;;;;8.70;7.00;;;;;;;19.13;100.00;100488.17;89619;1265;1038301;-63
2023/06/06 05:38:06;;;;;;;8.70;7.40;;;;;;;19.10;100.00;100489.77;89593;1265;1036342;-62
2023/06/06 05:42:09;;;;;;;12.60;7.30;;;;;;;19.09;100.00;100484.52;89543;1265;1037062;-63
2023/06/06 05:46:41;;;;;;;8.00;6.80;;;;;;;19.05;100.00;100494.61;89595;1265;1036152;-63
2023/06/06 05:50:44;;;;;;;13.30;7.10;;;;;;;18.94;100.00;100495.46;89597;1265;1035892;-63
2023/06/06 05:54:48;;;;;;;9.40;8.20;;;;;;;18.88;100.00;100490.37;89548;1265;1035924;-63
2023/06/06 05:58:54;;;;;;;7.50;6.80;;;;;;;18.89;100.00;100494.20;89603;1267;1035938;-63
2023/06/06 06:02:59;;;;;;;7.90;6.80;;;;;;;18.99;100.00;100493.48;89499;1265;1036405;-63
2023/06/06 06:07:04;;;;;;;8.80;7.20;;;;;;;19.02;100.00;100494.59;89632;1265;1035481;-64
2023/06/06 06:11:10;;;;;;;8.80;6.50;;;;;;;19.08;100.00;100497.00;89617;1265;1036367;-63
2023/06/06 06:15:15;;;;;;;9.20;7.20;;;;;;;19.24;100.00;100502.70;89514;1265;1036015;-63
2023/06/06 06:19:19;;;;;;;8.60;7.20;;;;;;;19.38;100.00;100504.66;89554;1265;1036400;-63
2023/06/06 06:23:22;;;;;;;7.80;7.00;;;;;;;19.56;100.00;100503.36;89569;1265;1036821;-64
2023/06/06 06:27:25;;;;;;;11.00;6.70;;;;;;;19.78;100.00;100500.85;89486;1265;1036104;-64
2023/06/06 06:31:28;;;;;;;8.60;6.70;;;;;;;20.03;100.00;100498.79;89518;1265;1036090;-63
2023/06/06 06:35:32;;;;;;;9.50;7.40;;;;;;;20.25;100.00;100501.96;89368;1265;1035642;-64
2023/06/06 06:39:38;;;;;;;9.90;7.20;;;;;;;20.42;100.00;100501.21;89531;1265;1034934;-63
2023/06/06 06:43:42;;;;;;;15.90;7.60;;;;;;;20.58;100.00;100505.69;88955;1263;1036550;-90
2023/06/06 06:47:45;;;;;;;12.80;8.00;;;;;;;20.75;100.00;100504.26;89069;1265;1036701;-89
2023/06/06 06:51:51;;;;;;;12.10;7.50;;;;;;;20.87;99.83;100501.39;88618;1265;1036499;-90
2023/06/06 06:55:55;;;;;;;8.40;5.90;;;;;;;20.95;98.36;100503.66;88409;1264;1036820;-90
2023/06/06 07:00:00;;;;;;;10.40;7.00;;;;;;;21.06;95.73;100506.85;88426;1267;1036289;-90
2023/06/06 07:04:08;;;;;;;9.30;6.60;;;;;;;21.24;95.92;100508.81;88504;1264;1036766;-90
2023/06/06 07:08:12;;;;;;;7.30;5.10;;;;;;;21.35;94.64;100503.95;88466;1265;1035748;-89
2023/06/06 07:12:15;;;;;;;10.80;7.60;;;;;;;21.51;92.95;100503.77;88550;1265;1037074;-90
2023/06/06 07:16:20;;;;;;;7.80;7.00;;;;;;;21.78;91.76;100506.09;88387;1268;1036039;-90
2023/06/06 07:20:23;;;;;;;10.60;6.90;;;;;;;22.11;91.03;100501.90;88677;1265;1036629;-90
2023/06/06 07:24:28;;;;;;;10.80;6.20;;;;;;;22.40;89.26;100500.73;88302;1265;1035063;-89
2023/06/06 07:28:32;;;;;;;9.20;7.50;;;;;;;22.58;87.79;100499.35;88806;1264;1036544;-90
2023/06/06 07:32:36;;;;;;;11.10;7.70;;;;;;;22.73;86.26;100494.88;88379;1266;1037124;-90
2023/06/06 07:36:40;;;;;;;26.60;17.40;;;;;;;22.93;85.19;100500.69;88522;1264;1036719;-90
2023/06/06 07:40:44;;;;;;;18.90;14.30;;;;;;;23.14;83.43;100496.45;88460;1267;1036880;-90
2023/06/06 07:44:49;;;;;;;15.70;13.90;;;;;;;23.30;82.95;100495.82;88748;1264;1035959;-90
2023/06/06 07:49:11;;;;;;;16.80;12.10;;;;;;;23.48;82.51;100498.48;88638;1264;1036066;-90
2023/06/06 07:53:15;;;;;;;11.10;9.80;;;;;;;23.77;82.29;100498.97;88614;1266;1036272;-90
2023/06/06 07:57:19;;;;;;;18.00;15.00;;;;;;;23.97;80.68;100489.36;88554;1263;1036655;-90
2023/06/06 08:01:24;;;;;;;14.80;13.10;;;;;;;24.03;79.63;100488.18;88590;1265;1039457;-89
2023/06/06 08:05:32;;;;;;;12.20;10.20;;;;;;;24.16;80.25;100481.77;88776;1264;1036715;-89
2023/06/06 08:09:37;;;;;;;7.10;6.30;;;;;;;24.41;79.44;100478.38;88673;1264;1039116;-90
2023/06/06 08:13:41;;;;;;;10.00;6.70;;;;;;;24.59;76.77;100475.56;88866;1263;1036992;-90
2023/06/06 08:17:44;;;;;;;11.60;7.50;;;;;;;24.70;74.91;100474.35;88620;1264;1036464;-90
2023/06/06 08:21:48;;;;;;;11.10;8.30;;;;;;;24.65;75.43;100472.83;88641;1266;1036014;-89
2023/06/06 08:25:57;;;;;;;8.40;6.50;;;;;;;24.78;74.46;100470.16;88606;1264;1036773;-90
2023/06/06 08:30:03;;;;;;;6.80;6.10;;;;;;;24.79;72.18;100466.23;88655;1264;1036771;-90
2023/06/06 08:34:06;;;;;;;11.10;5.90;;;;;;;24.77;71.68;100465.10;89059;1264;1036340;-90
2023/06/06 08:38:11;;;;;;;5.40;5.00;;;;;;;24.82;71.78;100464.25;88684;1264;1036885;-90
2023/06/06 08:42:17;;;;;;;8.40;5.70;;;;;;;24.79;70.82;100465.34;88589;1264;1036376;-90
2023/06/06 08:46:24;;;;;;;6.60;4.80;;;;;;;24.85;71.79;100464.52;88905;1263;1036743;-90
2023/06/06 08:50:30;;;;;;;6.80;5.20;;;;;;;24.94;70.92;100465.98;88673;1265;1036759;-90
2023/06/06 08:54:35;;;;;;;9.60;7.50;;;;;;;24.88;69.62;100463.67;88666;1264;1036608;-90
2023/06/06 08:58:43;;;;;;;6.10;5.00;;;;;;;24.89;69.63;100464.88;88671;1265;1035944;-90
2023/06/06 09:02:48;;;;;;;5.90;4.90;;;;;;;24.96;70.52;100462.21;88590;1265;1039109;-90
2023/06/06 09:06:56;;;;;;;7.90;5.90;;;;;;;25.01;69.44;100465.24;88457;1265;1036576;-90
2023/06/06 09:11:00;;;;;;;7.80;5.20;;;;;;;25.11;70.37;100464.55;88606;1264;1036029;-90
2023/06/06 09:15:04;;;;;;;5.40;4.40;;;;;;;25.29;70.17;100467.70;88769;1266;1036815;-91
2023/06/06 09:19:08;;;;;;;5.60;5.10;;;;;;;25.41;68.78;100457.55;88703;1265;1036937;-90
2023/06/06 09:23:14;;;;;;;9.50;5.70;;;;;;;25.59;67.65;100455.92;88584;1264;1037787;-90
2023/06/06 09:27:31;;;;;;;6.70;4.70;;;;;;;25.81;65.97;100458.64;88950;1264;1035948;-91
2023/06/06 09:31:38;;;;;;;5.40;4.70;;;;;;;25.90;65.40;100454.84;88792;1266;1035807;-91
2023/06/06 09:36:04;;;;;;;6.60;5.90;;;;;;;25.98;65.66;100456.14;88775;1263;1036971;-88
2023/06/06 09:40:13;;;;;;;6.40;4.60;;;;;;;26.10;65.35;100453.23;88713;1263;1036669;-89
2023/06/06 09:44:24;;;;;;;8.50;5.20;;;;;;;26.17;66.22;100456.06;88949;1265;1036894;-88
2023/06/06 09:48:28;;;;;;;5.10;4.60;;;;;;;26.23;66.97;100452.66;88682;1264;1039435;-89
2023/06/06 09:52:32;;;;;;;4.80;4.30;;;;;;;26.15;65.38;100451.38;88839;1266;1035988;-89
2023/06/06 09:56:40;;;;;;;7.00;4.40;;;;;;;25.96;64.23;100448.06;88899;1268;1036033;-89
2023/06/06 10:00:46;;;;;;;4.60;3.80;;;;;;;25.78;65.58;100448.91;88817;1264;1036850;-89
2023/06/06 10:04:51;;;;;;;;;;;;;;;25.72;67.30;100452.75;88725;1264;1036204;-89
2023/06/06 10:09:00;;;;;;;6.70;4.10;;;;;;;25.71;65.96;100450.98;88987;1264;1036709;-89
2023/06/06 10:13:04;;;;;;;5.70;4.10;;;;;;;25.69;66.82;100446.34;88625;1264;1037742;-89
2023/06/06 10:17:11;;;;;;;6.20;5.40;;;;;;;25.64;68.25;100448.48;88914;1268;1036586;-88
2023/06/06 10:21:15;;;;;;;4.70;4.10;;;;;;;25.62;68.69;100444.05;88895;1265;1036178;-89
2023/06/06 10:25:20;;;;;;;4.80;4.40;;;;;;;25.53;69.33;100446.02;88838;1268;1036387;-88
2023/06/06 10:29:37;;;;;;;5.20;4.70;;;;;;;25.36;69.33;100444.96;88768;1264;1039171;-89
2023/06/06 10:33:54;;;;;;;5.00;4.50;;;;;;;25.15;69.24;100446.74;88890;1265;1036541;-90
2023/06/06 10:38:03;;;;;;;7.40;4.70;;;;;;;25.04;71.07;100449.36;89117;1264;1036805;-91
2023/06/06 10:42:07;;;;;;;5.60;4.60;;;;;;;24.84;71.19;100446.86;88894;1264;1036433;-91
2023/06/06 10:46:12;;;;;;;6.20;5.20;;;;;;;24.61;71.90;100444.80;89079;1264;1037272;-91
2023/06/06 10:50:17;;;;;;;6.60;5.60;;;;;;;24.61;73.67;100442.27;88887;1267;1036616;-91
2023/06/06 10:54:24;;;;;;;;;;;;;;;24.58;75.26;100443.02;89089;1268;1036147;-91
2023/06/06 10:58:33;;;;;;;6.30;4.60;;;;;;;24.45;74.61;100439.05;88846;1268;1037552;-90
2023/06/06 11:02:40;;;;;;;8.70;5.20;;;;;;;24.46;76.42;100438.80;88868;1267;1036092;-91
2023/06/06 11:07:17;;;;;;;5.10;4.40;;;;;;;24.46;78.04;100436.73;88791;1268;1036145;-90
2023/06/06 11:12:07;;;;;;;11.40;6.60;;;;;;;24.55;76.92;100431.36;88931;1267;1036343;-91
2023/06/06 11:16:11;;;;;;;7.60;4.80;;;;;;;24.56;76.25;100429.61;88877;1267;1036322;-91
2023/06/06 11:43:52;;;;;;;7.30;4.80;;;;;;;24.30;79.05;100424.09;89640;1264;1038144;-65
2023/06/06 11:47:56;;;;;;;5.80;5.20;;;;;;;24.13;79.21;100420.58;89636;1263;1036735;-64
2023/06/06 11:52:47;;;;;;;5.70;5.00;;;;;;;23.78;81.42;100421.48;89564;1263;1036232;-64
2023/06/06 11:56:52;;;;;;;6.60;4.50;;;;;;;23.49;84.05;100425.95;89590;1264;1036578;-63
2023/06/06 12:00:59;;;;;;;11.90;6.60;;;;;;;23.40;84.66;100423.95;89534;1263;1036829;-63
2023/06/06 12:05:18;;;;;;;20.30;7.00;;;;;;;23.40;83.22;100418.35;89635;1264;1036230;-64
2023/06/06 12:09:24;;;;;;;11.00;5.50;;;;;;;23.44;84.17;100410.91;89541;1265;1036091;-63
2023/06/06 12:13:32;;;;;;;5.50;3.90;;;;;;;23.48;85.33;100408.11;89619;1265;1036479;-64
2023/06/06 12:17:35;;;;;;;6.90;4.70;;;;;;;23.40;83.89;100405.82;89657;1264;1036641;-63
2023/06/06 12:22:01;;;;;;;7.90;5.70;;;;;;;23.25;84.71;100409.59;89612;1265;1036621;-63
2023/06/06 12:26:04;;;;;;;6.40;5.50;;;;;;;23.07;86.30;100407.07;89595;1263;1036769;-65
2023/06/06 12:30:08;;;;;;;10.40;5.50;;;;;;;23.11;87.43;100407.47;89634;1263;1035968;-63
2023/06/06 12:34:13;;;;;;;7.80;4.70;;;;;;;23.24;87.72;100402.79;89624;1263;1036170;-64
2023/06/06 12:38:23;;;;;;;8.40;6.20;;;;;;;23.11;85.80;100401.37;89645;1263;1036544;-64
2023/06/06 12:42:28;;;;;;;6.50;5.80;;;;;;;23.04;84.55;100401.53;89595;1263;1038441;-64
2023/06/06 12:46:35;;;;;;;6.30;5.50;;;;;;;23.15;85.62;100401.34;89657;1264;1035796;-63
2023/06/06 12:50:43;;;;;;;8.10;5.80;;;;;;;23.32;83.57;100397.87;89647;1263;1036420;-63
2023/06/06 12:54:47;;;;;;;7.60;6.50;;;;;;;23.53;85.74;100390.11;89671;1264;1036562;-63
2023/06/06 12:58:51;;;;;;;12.90;6.50;;;;;;;23.71;84.97;100386.23;89834;1263;1035765;-63
2023/06/06 13:02:54;;;;;;;11.20;6.60;;;;;;;23.87;84.46;100385.70;89909;1264;1036624;-64
2023/06/06 13:06:58;;;;;;;8.90;5.90;;;;;;;23.88;81.04;100382.31;89805;1265;1035877;-63
2023/06/06 13:11:01;;;;;;;6.00;4.90;;;;;;;24.00;82.21;100378.80;89696;1263;1036118;-63
2023/06/06 13:15:32;;;;;;;7.00;5.40;;;;;;;24.14;82.09;100373.92;89699;1263;1036908;-63
2023/06/06 13:19:35;;;;;;;8.10;4.50;;;;;;;24.38;82.41;100369.98;89578;1263;1036444;-63
2023/06/06 13:23:39;;;;;;;8.40;6.00;;;;;;;24.45;82.18;100368.83;89676;1262;1036631;-59
2023/06/06 13:27:42;;;;;;;11.40;7.20;;;;;;;24.71;81.33;100360.98;89740;1263;1035986;-59
2023/06/06 13:31:45;;;;;;;9.30;5.00;;;;;;;24.98;79.59;100356.09;89775;1263;1036610;-60
2023/06/06 13:35:49;;;;;;;7.20;4.80;;;;;;;24.94;78.57;100352.31;89766;1263;1035971;-60
2023/06/06 13:39:52;;;;;;;6.20;5.60;;;;;;;24.78;78.30;100352.92;89772;1263;1035999;-59
2023/06/06 13:43:55;;;;;;;6.40;5.10;;;;;;;24.67;77.86;100346.80;89755;1263;1036565;-62
2023/06/06 13:47:58;;;;;;;5.80;4.40;;;;;;;24.44;78.71;100347.51;89746;1265;1036212;-60
2023/06/06 13:52:07;;;;;;;5.70;5.20;;;;;;;24.26;81.54;100346.74;89760;1263;1036227;-60
2023/06/06 13:56:15;;;;;;;7.20;4.70;;;;;;;24.17;82.55;100343.32;89703;1265;1035353;-59
2023/06/06 14:00:19;;;;;;;9.90;5.50;;;;;;;24.23;82.22;100334.09;89662;1268;1036126;-60
2023/06/06 14:04:52;;;;;;;8.80;5.90;;;;;;;24.33;82.50;100334.67;89683;1263;1036013;-62
2023/06/06 14:08:56;;;;;;;7.90;5.70;;;;;;;24.57;81.06;100322.63;89761;1263;1036505;-60
2023/06/06 14:13:02;;;;;;;8.10;5.70;;;;;;;24.64;80.00;100316.45;89735;1260;1036395;-90
2023/06/06 14:17:07;;;;;;;9.00;5.80;;;;;;;24.52;80.11;100308.61;89741;1267;1036223;-89
2023/06/06 14:25:33;;;;;;;7.30;5.20;;;;;;;24.36;81.27;100309.57;89070;1266;1034142;-88
2023/06/06 14:33:57;;;;;;;8.60;4.70;;;;;;;24.88;82.23;100302.50;89452;1270;1035719;-91
2023/06/06 14:38:13;;;;;;;8.30;4.40;;;;;;;25.06;75.80;100300.35;89615;1267;1037041;-90
2023/06/06 14:46:39;;;;;;;9.70;5.20;;;;;;;25.03;74.05;100292.77;89226;1265;1034127;-87
2023/06/06 14:50:42;;;;;;;8.90;4.70;;;;;;;25.06;74.17;100284.11;89238;1265;1036524;-89
2023/06/06 14:54:47;;;;;;;7.00;5.20;;;;;;;25.11;73.59;100277.23;88917;1267;1035883;-89
2023/06/06 14:58:51;;;;;;;4.50;4.10;;;;;;;25.39;76.15;100273.91;89121;1269;1035081;-90
2023/06/06 15:02:55;;;;;;;5.10;4.60;;;;;;;25.55;71.70;100275.58;89261;1267;1036363;-90
2023/06/06 15:07:01;;;;;;;8.50;4.20;;;;;;;25.61;70.26;100273.63;89109;1265;1039765;-90
2023/06/06 15:11:06;;;;;;;3.60;3.20;;;;;;;25.61;68.22;100270.05;89113;1265;1035895;-90
2023/06/06 15:15:10;;;;;;;5.10;4.30;;;;;;;25.82;67.26;100267.88;89051;1265;1035940;-88
2023/06/06 15:19:15;;;;;;;5.30;4.80;;;;;;;26.00;66.86;100265.06;89100;1265;1036692;-89
2023/06/06 15:23:19;;;;;;;6.40;4.30;;;;;;;26.02;67.97;100264.79;89224;1265;1036863;-89
2023/06/06 15:27:23;;;;;;;22.40;5.30;;;;;;;25.94;69.88;100266.13;89045;1265;1039474;-89
2023/06/06 15:31:31;;;;;;;16.20;4.70;;;;;;;25.89;70.64;100267.18;89342;1267;1037761;-91
2023/06/06 15:35:37;;;;;;;6.40;4.30;;;;;;;25.64;70.97;100260.20;89442;1265;1036527;-90
2023/06/06 15:39:45;;;;;;;6.90;4.40;;;;;;;25.57;71.83;100257.98;89481;1265;1039119;-91
2023/06/06 15:43:50;;;;;;;8.20;5.10;;;;;;;25.58;72.61;100255.46;89464;1265;1036944;-89
2023/06/06 15:47:54;;;;;;;6.80;4.70;;;;;;;25.65;74.19;100255.55;89268;1265;1036205;-89
2023/06/06 15:52:09;;;;;;;11.80;4.50;;;;;;;25.79;73.03;100250.78;89447;1265;1036303;-89
2023/06/06 15:56:21;;;;;;;7.10;4.20;;;;;;;25.82;69.84;100251.80;89367;1265;1039674;-91
2023/06/06 16:00:33;;;;;;;6.80;3.90;;;;;;;25.77;68.80;100249.59;89317;1265;1036140;-91
2023/06/06 16:04:39;;;;;;;;;;;;;;;25.88;70.24;100241.87;89483;1265;1036157;-91
2023/06/06 16:08:42;;;;;;;;;;;;;;;26.08;67.02;100235.28;89500;1265;1036342;-90
2023/06/06 16:12:47;;;;;;;5.50;3.30;;;;;;;26.15;61.70;100227.68;89288;1265;1037376;-89
2023/06/06 16:16:52;;;;;;;4.40;3.80;;;;;;;26.21;58.14;100225.66;89285;1267;1036617;-91
2023/06/06 16:20:56;;;;;;;6.40;3.30;;;;;;;26.23;61.11;100220.09;89167;1265;1036037;-90
2023/06/06 16:25:00;;;;;;;5.60;4.00;;;;;;;26.29;59.93;100221.19;89299;1265;1036293;-89
2023/06/06 16:29:05;;;;;;;4.80;2.60;;;;;;;26.28;58.87;100221.04;89224;1265;1036719;-88
2023/06/06 16:33:12;;;;;;;5.20;2.40;;;;;;;26.24;59.07;100219.96;89439;1265;1036556;-90
2023/06/06 16:37:16;;;;;;;4.90;3.10;;;;;;;26.17;58.69;100215.68;89207;1265;1037606;-90
2023/06/06 16:41:22;;;;;;;3.90;3.20;;;;;;;26.18;60.72;100217.61;89278;1265;1035268;-90
2023/06/06 16:45:26;;;;;;;5.00;2.80;;;;;;;26.19;62.28;100220.08;89465;1265;1037141;-90
2023/06/06 16:49:35;;;;;;;5.20;3.60;;;;;;;26.14;62.62;100222.50;89128;1265;1036818;-90
2023/06/06 16:53:42;;;;;;;5.60;3.50;;;;;;;26.11;63.27;100220.82;89187;1265;1037949;-91
2023/06/06 16:57:46;;;;;;;8.30;3.90;;;;;;;26.02;62.58;100222.54;88968;1265;1037627;-90
2023/06/06 17:01:50;;;;;;;3.80;2.70;;;;;;;25.95;62.47;100224.44;89130;1265;1036869;-89
2023/06/06 17:05:55;;;;;;;8.30;3.60;;;;;;;25.94;62.92;100225.73;89517;1265;1036935;-91
2023/06/06 17:10:13;;;;;;;5.10;3.50;;;;;;;26.02;62.85;100231.71;89132;1265;1036300;-90
2023/06/06 17:14:18;;;;;;;7.30;2.70;;;;;;;26.04;62.86;100229.14;89181;1265;1037116;-90
2023/06/06 17:18:22;;;;;;;24.80;5.40;;;;;;;26.20;64.57;100230.84;89169;1266;1038813;-92
2023/06/06 17:22:26;;;;;;;20.30;3.90;;;;;;;26.16;64.79;100231.30;89171;1265;1035928;-87
2023/06/06 17:26:32;;;;;;;5.40;4.10;;;;;;;25.91;67.20;100234.83;89168;1265;1036210;-90
2023/06/06 17:30:40;;;;;;;3.90;3.50;;;;;;;25.48;70.90;100239.68;89415;1265;1036132;-88
2023/06/06 17:34:44;;;;;;;8.00;4.60;;;;;;;25.22;70.63;100235.90;89150;1266;1036569;-88
2023/06/06 17:38:48;;;;;;;9.60;4.50;;;;;;;25.00;70.55;100237.12;89076;1270;1039592;-89
2023/06/06 17:42:52;;;;;;;13.90;4.80;;;;;;;24.85;69.33;100235.77;89065;1265;1036173;-86
2023/06/06 17:46:56;;;;;;;5.40;4.20;;;;;;;24.65;69.97;100231.05;88895;1265;1037048;-89
2023/06/06 17:51:00;;;;;;;6.60;3.80;;;;;;;24.44;69.86;100234.55;88833;1265;1036180;-89
2023/06/06 17:55:05;;;;;;;8.10;4.10;;;;;;;24.30;72.23;100238.23;89002;1269;1036510;-89
2023/06/06 17:59:09;;;;;;;5.40;3.60;;;;;;;24.09;74.06;100235.14;88798;1265;1039093;-88
2023/06/06 18:03:13;;;;;;;6.70;4.40;;;;;;;23.82;73.96;100234.66;88995;1265;1037064;-90
2023/06/06 18:07:16;;;;;;;5.50;4.30;;;;;;;23.71;74.19;100234.23;89325;1269;1036515;-90
2023/06/06 18:11:21;;;;;;;12.40;4.40;;;;;;;23.37;75.30;100232.92;89021;1265;1036321;-88
2023/06/06 18:29:25;;;;;;;8.30;4.90;;;;;;;22.39;81.63;100246.66;88904;1265;1034304;-60
2023/06/06 18:33:28;;;;;;;10.20;4.10;;;;;;;22.27;80.28;100247.91;89746;1268;1036094;-58
2023/06/06 18:37:36;;;;;;;8.80;4.80;;;;;;;22.17;77.15;100250.64;89661;1265;1036799;-58
2023/06/06 18:41:40;;;;;;;10.50;4.20;;;;;;;22.15;76.98;100254.21;89702;1264;1036769;-58
2023/06/06 18:45:48;;;;;;;7.10;3.20;;;;;;;22.13;76.65;100258.97;89564;1264;1036110;-58
2023/06/06 18:59:06;;;;;;;10.30;3.60;;;;;;;22.00;72.57;100272.91;89724;1264;1036579;-58
2023/06/06 19:03:12;;;;;;;10.00;4.20;;;;;;;22.00;72.51;100274.20;89563;1265;1036635;-57
2023/06/06 19:07:16;;;;;;;13.50;5.30;;;;;;;21.97;71.91;100278.73;89734;1264;1015845;-57
2023/06/06 19:11:20;;;;;;;6.90;3.90;;;;;;;21.91;71.98;100283.79;89800;1264;1040593;-58
2023/06/06 19:15:53;;;;;;;5.20;3.80;;;;;;;21.90;70.95;100291.95;89818;1265;1041686;-58
2023/06/06 19:19:57;;;;;;;9.90;4.30;;;;;;;21.90;71.28;100298.48;89786;1265;1041120;-57
2023/06/06 19:24:04;;;;;;;12.30;5.40;;;;;;;21.85;73.66;100306.45;89811;1265;1041668;-58
2023/06/06 19:28:07;;;;;;;5.70;4.40;;;;;;;21.63;77.78;100313.23;89727;1265;1040626;-58
2023/06/06 19:32:10;;;;;;;11.00;5.10;;;;;;;21.23;79.79;100316.16;89807;1265;1040778;-57
2023/06/06 19:36:17;;;;;;;5.90;4.70;;;;;;;21.02;80.43;100319.89;89735;1265;1041137;-57
2023/06/06 19:40:22;;;;;;;9.50;5.10;;;;;;;20.97;80.45;100318.95;89689;1264;1043857;-57
2023/06/06 19:44:27;;;;;;;8.60;6.00;;;;;;;21.02;81.01;100320.98;89840;1265;1040642;-58
2023/06/06 19:48:29;;;;;;;9.20;5.10;;;;;;;21.02;81.19;100322.73;89775;1264;1040845;-59
2023/06/06 19:52:32;;;;;;;8.00;5.10;;;;;;;21.04;80.16;100330.95;89779;1265;1041481;-57
2023/06/06 19:56:35;;;;;;;8.20;5.10;;;;;;;21.02;78.14;100335.16;89783;1265;1041482;-57
2023/06/06 20:00:38;;;;;;;9.80;5.30;;;;;;;20.96;77.85;100333.24;89801;1263;1041492;-58
2023/06/06 20:04:42;;;;;;;7.00;6.20;;;;;;;20.88;76.51;100335.80;89787;1265;1040583;-57
2023/06/06 20:08:45;;;;;;;6.70;5.30;;;;;;;20.78;75.99;100335.75;89715;1265;1041184;-58
2023/06/06 20:12:49;;;;;;;6.60;5.80;;;;;;;20.67;75.40;100336.62;89657;1266;1041560;-58